sensor_id;sensor_type;location;lat;lon;timestamp;P1;durP1;ratioP1;P2;durP2;ratioP2
38683;SDS011;24910;53.248;-6.134;2023-02-03T00:00:24;4.85;;;1.30;;
38683;SDS011;24910;53.248;-6.134;2023-02-03T00:02:55;6.72;;;1.58;;
38683;SDS011;24910;53.248;-6.134;2023-02-03T00:05:24;7.45;;;1.60;;
38683;SDS011;24910;53.248;-6.134;2023-02-03T00:07:53;6.40;;;1.33;;
38683;SDS011;24910;53.248;-6.134;2023-02-03T00:10:22;8.00;;;1.63;;
38683;SDS011;24910;53.248;-6.134;2023-02-03T00:12:52;5.32;;;1.90;;
38683;SDS011;24910;53.248;-6.134;2023-02-03T00:15:24;6.70;;;1.05;;
38683;SDS011;24910;53.248;-6.134;2023-02-03T00:17:53;5.65;;;1.27;;
38683;SDS011;24910;53.248;-6.134;2023-02-03T00:20:22;5.35;;;1.23;;
38683;SDS011;24910;53.248;-6.134;2023-02-03T00:22:52;4.63;;;1.30;;
38683;SDS011;24910;53.248;-6.134;2023-02-03T00:25:21;9.25;;;1.48;;
38683;SDS011;24910;53.248;-6.134;2023-02-03T00:27:50;7.97;;;1.30;;
38683;SDS011;24910;53.248;-6.134;2023-02-03T00:30:21;8.90;;;1.70;;
38683;SDS011;24910;53.248;-6.134;2023-02-03T00:32:50;5.50;;;1.30;;
38683;SDS011;24910;53.248;-6.134;2023-02-03T00:35:20;8.75;;;1.35;;
38683;SDS011;24910;53.248;-6.134;2023-02-03T00:37:50;5.45;;;1.33;;
38683;SDS011;24910;53.248;-6.134;2023-02-03T00:40:21;8.98;;;1.35;;
38683;SDS011;24910;53.248;-6.134;2023-02-03T00:45:22;6.95;;;1.33;;
38683;SDS011;24910;53.248;-6.134;2023-02-03T00:47:51;7.97;;;1.40;;
38683;SDS011;24910;53.248;-6.134;2023-02-03T00:50:21;4.43;;;1.10;;
38683;SDS011;24910;53.248;-6.134;2023-02-03T00:52:51;5.97;;;1.33;;
38683;SDS011;24910;53.248;-6.134;2023-02-03T00:55:20;11.63;;;1.60;;
38683;SDS011;24910;53.248;-6.134;2023-02-03T00:57:49;7.68;;;1.45;;
38683;SDS011;24910;53.248;-6.134;2023-02-03T01:00:18;7.70;;;1.45;;
38683;SDS011;24910;53.248;-6.134;2023-02-03T01:02:49;6.57;;;1.45;;
38683;SDS011;24910;53.248;-6.134;2023-02-03T01:05:19;6.32;;;1.30;;
38683;SDS011;24910;53.248;-6.134;2023-02-03T01:07:48;10.48;;;1.52;;
38683;SDS011;24910;53.248;-6.134;2023-02-03T01:10:17;11.35;;;1.77;;
38683;SDS011;24910;53.248;-6.134;2023-02-03T01:12:47;8.73;;;1.50;;
38683;SDS011;24910;53.248;-6.134;2023-02-03T01:15:16;7.35;;;1.60;;
38683;SDS011;24910;53.248;-6.134;2023-02-03T01:17:45;8.80;;;1.67;;
38683;SDS011;24910;53.248;-6.134;2023-02-03T01:20:16;8.30;;;1.60;;
38683;SDS011;24910;53.248;-6.134;2023-02-03T01:22:47;6.50;;;1.40;;
38683;SDS011;24910;53.248;-6.134;2023-02-03T01:28:38;7.57;;;1.42;;
38683;SDS011;24910;53.248;-6.134;2023-02-03T01:31:08;9.10;;;1.77;;
38683;SDS011;24910;53.248;-6.134;2023-02-03T01:36:09;9.68;;;1.60;;
38683;SDS011;24910;53.248;-6.134;2023-02-03T01:38:39;8.95;;;1.65;;
38683;SDS011;24910;53.248;-6.134;2023-02-03T01:41:09;9.32;;;1.50;;
38683;SDS011;24910;53.248;-6.134;2023-02-03T01:43:41;7.97;;;1.90;;
38683;SDS011;24910;53.248;-6.134;2023-02-03T01:46:17;6.80;;;1.70;;
38683;SDS011;24910;53.248;-6.134;2023-02-03T01:48:55;6.32;;;1.60;;
38683;SDS011;24910;53.248;-6.134;2023-02-03T01:51:33;6.47;;;1.40;;
38683;SDS011;24910;53.248;-6.134;2023-02-03T01:56:32;5.32;;;1.40;;
38683;SDS011;24910;53.248;-6.134;2023-02-03T01:59:06;4.50;;;1.38;;
38683;SDS011;24910;53.248;-6.134;2023-02-03T02:01:35;4.60;;;1.30;;
38683;SDS011;24910;53.248;-6.134;2023-02-03T02:04:05;5.70;;;1.30;;
38683;SDS011;24910;53.248;-6.134;2023-02-03T02:06:35;12.50;;;1.67;;
38683;SDS011;24910;53.248;-6.134;2023-02-03T02:09:10;4.68;;;1.05;;
38683;SDS011;24910;53.248;-6.134;2023-02-03T02:14:10;3.10;;;1.00;;
38683;SDS011;24910;53.248;-6.134;2023-02-03T02:16:40;5.25;;;1.10;;
38683;SDS011;24910;53.248;-6.134;2023-02-03T02:19:24;4.22;;;1.00;;
38683;SDS011;24910;53.248;-6.134;2023-02-03T02:22:15;4.40;;;1.00;;
38683;SDS011;24910;53.248;-6.134;2023-02-03T02:31:04;3.38;;;0.90;;
38683;SDS011;24910;53.248;-6.134;2023-02-03T02:33:52;3.75;;;0.90;;
38683;SDS011;24910;53.248;-6.134;2023-02-03T02:36:34;3.60;;;1.35;;
38683;SDS011;24910;53.248;-6.134;2023-02-03T02:39:11;3.05;;;1.10;;
38683;SDS011;24910;53.248;-6.134;2023-02-03T02:41:48;4.53;;;1.10;;
38683;SDS011;24910;53.248;-6.134;2023-02-03T02:44:24;4.40;;;1.30;;
38683;SDS011;24910;53.248;-6.134;2023-02-03T02:46:57;6.05;;;1.70;;
38683;SDS011;24910;53.248;-6.134;2023-02-03T02:49:31;3.55;;;1.13;;
38683;SDS011;24910;53.248;-6.134;2023-02-03T02:52:03;6.45;;;1.25;;
38683;SDS011;24910;53.248;-6.134;2023-02-03T02:54:35;3.70;;;1.20;;
38683;SDS011;24910;53.248;-6.134;2023-02-03T02:57:09;6.13;;;1.20;;
38683;SDS011;24910;53.248;-6.134;2023-02-03T02:59:42;4.30;;;1.40;;
38683;SDS011;24910;53.248;-6.134;2023-02-03T03:02:12;3.07;;;1.00;;
38683;SDS011;24910;53.248;-6.134;2023-02-03T03:04:43;4.07;;;1.05;;
38683;SDS011;24910;53.248;-6.134;2023-02-03T03:07:17;4.50;;;1.30;;
38683;SDS011;24910;53.248;-6.134;2023-02-03T03:09:53;4.03;;;1.05;;
38683;SDS011;24910;53.248;-6.134;2023-02-03T03:12:26;3.90;;;1.00;;
38683;SDS011;24910;53.248;-6.134;2023-02-03T03:14:59;2.33;;;0.90;;
38683;SDS011;24910;53.248;-6.134;2023-02-03T03:17:38;3.58;;;1.00;;
38683;SDS011;24910;53.248;-6.134;2023-02-03T03:20:12;3.85;;;0.80;;
38683;SDS011;24910;53.248;-6.134;2023-02-03T03:22:46;3.00;;;0.90;;
38683;SDS011;24910;53.248;-6.134;2023-02-03T03:25:19;4.25;;;1.15;;
38683;SDS011;24910;53.248;-6.134;2023-02-03T03:27:55;5.60;;;1.00;;
38683;SDS011;24910;53.248;-6.134;2023-02-03T03:30:28;3.40;;;0.90;;
38683;SDS011;24910;53.248;-6.134;2023-02-03T03:33:00;2.80;;;0.70;;
38683;SDS011;24910;53.248;-6.134;2023-02-03T03:35:35;3.15;;;0.90;;
38683;SDS011;24910;53.248;-6.134;2023-02-03T03:38:08;2.83;;;0.90;;
38683;SDS011;24910;53.248;-6.134;2023-02-03T03:40:45;4.75;;;0.90;;
38683;SDS011;24910;53.248;-6.134;2023-02-03T03:43:19;2.88;;;0.80;;
38683;SDS011;24910;53.248;-6.134;2023-02-03T03:48:22;1.83;;;0.70;;
38683;SDS011;24910;53.248;-6.134;2023-02-03T03:51:00;2.38;;;0.82;;
38683;SDS011;24910;53.248;-6.134;2023-02-03T03:53:32;2.80;;;0.80;;
38683;SDS011;24910;53.248;-6.134;2023-02-03T03:56:06;2.22;;;0.70;;
38683;SDS011;24910;53.248;-6.134;2023-02-03T03:58:41;3.25;;;0.65;;
38683;SDS011;24910;53.248;-6.134;2023-02-03T04:01:12;2.00;;;0.75;;
38683;SDS011;24910;53.248;-6.134;2023-02-03T04:03:44;2.38;;;0.77;;
38683;SDS011;24910;53.248;-6.134;2023-02-03T04:06:17;4.32;;;0.98;;
38683;SDS011;24910;53.248;-6.134;2023-02-03T04:08:47;1.45;;;0.60;;
38683;SDS011;24910;53.248;-6.134;2023-02-03T04:11:16;2.92;;;0.93;;
38683;SDS011;24910;53.248;-6.134;2023-02-03T04:13:59;2.45;;;0.68;;
38683;SDS011;24910;53.248;-6.134;2023-02-03T04:16:28;3.33;;;0.77;;
38683;SDS011;24910;53.248;-6.134;2023-02-03T04:18:58;2.88;;;0.90;;
38683;SDS011;24910;53.248;-6.134;2023-02-03T04:21:28;1.33;;;0.90;;
38683;SDS011;24910;53.248;-6.134;2023-02-03T04:23:57;3.53;;;0.70;;
38683;SDS011;24910;53.248;-6.134;2023-02-03T04:26:27;3.22;;;0.80;;
38683;SDS011;24910;53.248;-6.134;2023-02-03T04:28:56;3.45;;;0.70;;
38683;SDS011;24910;53.248;-6.134;2023-02-03T04:31:25;2.05;;;0.70;;
38683;SDS011;24910;53.248;-6.134;2023-02-03T04:33:54;1.52;;;0.60;;
38683;SDS011;24910;53.248;-6.134;2023-02-03T04:36:24;1.80;;;0.68;;
38683;SDS011;24910;53.248;-6.134;2023-02-03T04:38:54;1.83;;;0.70;;
38683;SDS011;24910;53.248;-6.134;2023-02-03T04:41:23;2.53;;;0.80;;
38683;SDS011;24910;53.248;-6.134;2023-02-03T04:43:52;3.22;;;1.00;;
38683;SDS011;24910;53.248;-6.134;2023-02-03T04:46:21;2.10;;;0.80;;
38683;SDS011;24910;53.248;-6.134;2023-02-03T04:48:50;2.15;;;1.00;;
38683;SDS011;24910;53.248;-6.134;2023-02-03T04:51:20;5.47;;;1.17;;
38683;SDS011;24910;53.248;-6.134;2023-02-03T04:53:49;3.88;;;1.10;;
38683;SDS011;24910;53.248;-6.134;2023-02-03T04:56:19;2.38;;;0.82;;
38683;SDS011;24910;53.248;-6.134;2023-02-03T04:58:48;3.58;;;0.90;;
38683;SDS011;24910;53.248;-6.134;2023-02-03T05:01:18;4.05;;;0.80;;
38683;SDS011;24910;53.248;-6.134;2023-02-03T05:03:47;4.65;;;1.05;;
38683;SDS011;24910;53.248;-6.134;2023-02-03T05:06:16;4.95;;;1.00;;
38683;SDS011;24910;53.248;-6.134;2023-02-03T05:08:49;2.20;;;0.85;;
38683;SDS011;24910;53.248;-6.134;2023-02-03T05:11:20;4.95;;;1.10;;
38683;SDS011;24910;53.248;-6.134;2023-02-03T05:13:49;7.28;;;1.50;;
38683;SDS011;24910;53.248;-6.134;2023-02-03T05:16:19;8.38;;;1.27;;
38683;SDS011;24910;53.248;-6.134;2023-02-03T05:18:48;6.85;;;1.50;;
38683;SDS011;24910;53.248;-6.134;2023-02-03T05:21:17;5.00;;;1.38;;
38683;SDS011;24910;53.248;-6.134;2023-02-03T05:23:48;5.68;;;1.33;;
38683;SDS011;24910;53.248;-6.134;2023-02-03T05:26:17;6.57;;;1.45;;
38683;SDS011;24910;53.248;-6.134;2023-02-03T05:28:48;4.72;;;1.38;;
38683;SDS011;24910;53.248;-6.134;2023-02-03T05:31:19;4.78;;;1.27;;
38683;SDS011;24910;53.248;-6.134;2023-02-03T05:33:48;4.13;;;1.23;;
38683;SDS011;24910;53.248;-6.134;2023-02-03T05:36:17;3.72;;;1.00;;
38683;SDS011;24910;53.248;-6.134;2023-02-03T05:38:47;2.53;;;0.80;;
38683;SDS011;24910;53.248;-6.134;2023-02-03T05:41:16;2.47;;;0.80;;
38683;SDS011;24910;53.248;-6.134;2023-02-03T05:44:04;5.68;;;0.70;;
38683;SDS011;24910;53.248;-6.134;2023-02-03T05:46:33;5.40;;;1.00;;
38683;SDS011;24910;53.248;-6.134;2023-02-03T05:49:02;1.98;;;0.77;;
38683;SDS011;24910;53.248;-6.134;2023-02-03T05:51:31;3.38;;;1.02;;
38683;SDS011;24910;53.248;-6.134;2023-02-03T05:54:00;3.17;;;0.90;;
38683;SDS011;24910;53.248;-6.134;2023-02-03T05:56:29;4.97;;;1.10;;
38683;SDS011;24910;53.248;-6.134;2023-02-03T05:58:58;5.75;;;0.90;;
38683;SDS011;24910;53.248;-6.134;2023-02-03T06:01:29;8.13;;;1.10;;
38683;SDS011;24910;53.248;-6.134;2023-02-03T06:03:59;3.80;;;0.95;;
38683;SDS011;24910;53.248;-6.134;2023-02-03T06:06:29;5.57;;;1.30;;
38683;SDS011;24910;53.248;-6.134;2023-02-03T06:09:01;5.63;;;1.05;;
38683;SDS011;24910;53.248;-6.134;2023-02-03T06:11:32;7.20;;;1.30;;
38683;SDS011;24910;53.248;-6.134;2023-02-03T06:14:02;3.60;;;1.33;;
38683;SDS011;24910;53.248;-6.134;2023-02-03T06:16:33;7.00;;;1.33;;
38683;SDS011;24910;53.248;-6.134;2023-02-03T06:19:02;7.38;;;1.30;;
38683;SDS011;24910;53.248;-6.134;2023-02-03T06:21:31;6.82;;;1.10;;
38683;SDS011;24910;53.248;-6.134;2023-02-03T06:24:00;9.15;;;1.27;;
38683;SDS011;24910;53.248;-6.134;2023-02-03T06:26:29;5.38;;;1.30;;
38683;SDS011;24910;53.248;-6.134;2023-02-03T06:28:59;4.15;;;0.88;;
38683;SDS011;24910;53.248;-6.134;2023-02-03T06:31:28;6.05;;;0.90;;
38683;SDS011;24910;53.248;-6.134;2023-02-03T06:33:59;2.97;;;1.00;;
38683;SDS011;24910;53.248;-6.134;2023-02-03T06:36:28;5.38;;;1.00;;
38683;SDS011;24910;53.248;-6.134;2023-02-03T06:38:58;4.45;;;1.15;;
38683;SDS011;24910;53.248;-6.134;2023-02-03T06:41:27;3.08;;;0.80;;
38683;SDS011;24910;53.248;-6.134;2023-02-03T06:43:57;5.70;;;1.00;;
38683;SDS011;24910;53.248;-6.134;2023-02-03T06:46:26;3.22;;;0.60;;
38683;SDS011;24910;53.248;-6.134;2023-02-03T06:48:56;3.75;;;1.38;;
38683;SDS011;24910;53.248;-6.134;2023-02-03T06:51:27;4.20;;;0.70;;
38683;SDS011;24910;53.248;-6.134;2023-02-03T06:53:57;6.00;;;1.35;;
38683;SDS011;24910;53.248;-6.134;2023-02-03T06:56:26;3.97;;;0.80;;
38683;SDS011;24910;53.248;-6.134;2023-02-03T06:58:55;2.67;;;0.80;;
38683;SDS011;24910;53.248;-6.134;2023-02-03T07:01:25;3.83;;;0.70;;
38683;SDS011;24910;53.248;-6.134;2023-02-03T07:03:56;2.13;;;0.77;;
38683;SDS011;24910;53.248;-6.134;2023-02-03T07:06:27;3.75;;;1.23;;
38683;SDS011;24910;53.248;-6.134;2023-02-03T07:08:58;5.22;;;0.68;;
38683;SDS011;24910;53.248;-6.134;2023-02-03T07:11:28;1.88;;;0.70;;
38683;SDS011;24910;53.248;-6.134;2023-02-03T07:13:58;2.92;;;0.63;;
38683;SDS011;24910;53.248;-6.134;2023-02-03T07:16:27;3.85;;;0.60;;
38683;SDS011;24910;53.248;-6.134;2023-02-03T07:18:57;4.47;;;0.93;;
38683;SDS011;24910;53.248;-6.134;2023-02-03T07:21:27;3.15;;;0.80;;
38683;SDS011;24910;53.248;-6.134;2023-02-03T07:23:57;1.02;;;0.52;;
38683;SDS011;24910;53.248;-6.134;2023-02-03T07:26:26;1.42;;;0.52;;
38683;SDS011;24910;53.248;-6.134;2023-02-03T07:28:56;2.55;;;0.50;;
38683;SDS011;24910;53.248;-6.134;2023-02-03T07:31:27;1.58;;;0.50;;
38683;SDS011;24910;53.248;-6.134;2023-02-03T07:33:56;2.80;;;0.80;;
38683;SDS011;24910;53.248;-6.134;2023-02-03T07:36:28;4.07;;;0.60;;
38683;SDS011;24910;53.248;-6.134;2023-02-03T07:38:59;3.22;;;0.60;;
38683;SDS011;24910;53.248;-6.134;2023-02-03T07:41:29;4.40;;;0.90;;
38683;SDS011;24910;53.248;-6.134;2023-02-03T07:43:58;3.13;;;0.88;;
38683;SDS011;24910;53.248;-6.134;2023-02-03T07:46:27;1.83;;;0.73;;
38683;SDS011;24910;53.248;-6.134;2023-02-03T07:48:56;5.63;;;0.90;;
38683;SDS011;24910;53.248;-6.134;2023-02-03T07:51:25;5.72;;;1.17;;
38683;SDS011;24910;53.248;-6.134;2023-02-03T07:53:56;5.13;;;0.90;;
38683;SDS011;24910;53.248;-6.134;2023-02-03T07:56:26;7.13;;;1.00;;
38683;SDS011;24910;53.248;-6.134;2023-02-03T07:58:56;4.05;;;1.05;;
38683;SDS011;24910;53.248;-6.134;2023-02-03T08:01:26;3.35;;;1.00;;
38683;SDS011;24910;53.248;-6.134;2023-02-03T08:03:57;3.92;;;1.10;;
38683;SDS011;24910;53.248;-6.134;2023-02-03T08:06:28;5.30;;;1.40;;
38683;SDS011;24910;53.248;-6.134;2023-02-03T08:08:59;7.28;;;1.02;;
38683;SDS011;24910;53.248;-6.134;2023-02-03T08:11:31;7.47;;;1.23;;
38683;SDS011;24910;53.248;-6.134;2023-02-03T08:14:00;6.47;;;1.27;;
38683;SDS011;24910;53.248;-6.134;2023-02-03T08:16:29;4.38;;;1.02;;
38683;SDS011;24910;53.248;-6.134;2023-02-03T08:18:58;6.03;;;1.13;;
38683;SDS011;24910;53.248;-6.134;2023-02-03T08:21:33;10.18;;;1.48;;
38683;SDS011;24910;53.248;-6.134;2023-02-03T08:24:03;9.00;;;1.42;;
38683;SDS011;24910;53.248;-6.134;2023-02-03T08:29:02;7.43;;;1.45;;
38683;SDS011;24910;53.248;-6.134;2023-02-03T08:31:32;8.57;;;1.20;;
38683;SDS011;24910;53.248;-6.134;2023-02-03T08:34:01;8.07;;;1.65;;
38683;SDS011;24910;53.248;-6.134;2023-02-03T08:36:31;8.50;;;1.33;;
38683;SDS011;24910;53.248;-6.134;2023-02-03T08:39:01;8.50;;;1.08;;
38683;SDS011;24910;53.248;-6.134;2023-02-03T08:41:31;8.60;;;1.88;;
38683;SDS011;24910;53.248;-6.134;2023-02-03T08:44:01;6.10;;;1.30;;
38683;SDS011;24910;53.248;-6.134;2023-02-03T08:46:30;9.63;;;1.40;;
38683;SDS011;24910;53.248;-6.134;2023-02-03T08:48:59;12.05;;;1.60;;
38683;SDS011;24910;53.248;-6.134;2023-02-03T08:51:29;12.88;;;2.53;;
38683;SDS011;24910;53.248;-6.134;2023-02-03T08:53:58;16.88;;;2.10;;
38683;SDS011;24910;53.248;-6.134;2023-02-03T08:56:27;9.27;;;1.90;;
38683;SDS011;24910;53.248;-6.134;2023-02-03T08:58:57;11.25;;;1.60;;
38683;SDS011;24910;53.248;-6.134;2023-02-03T09:01:27;10.18;;;2.08;;
38683;SDS011;24910;53.248;-6.134;2023-02-03T09:03:56;10.25;;;1.98;;
38683;SDS011;24910;53.248;-6.134;2023-02-03T09:08:57;12.10;;;1.80;;
38683;SDS011;24910;53.248;-6.134;2023-02-03T09:11:26;6.28;;;1.85;;
38683;SDS011;24910;53.248;-6.134;2023-02-03T09:13:55;20.15;;;2.30;;
38683;SDS011;24910;53.248;-6.134;2023-02-03T09:16:26;9.90;;;2.10;;
38683;SDS011;24910;53.248;-6.134;2023-02-03T09:18:57;11.60;;;2.83;;
38683;SDS011;24910;53.248;-6.134;2023-02-03T09:21:26;9.23;;;2.00;;
38683;SDS011;24910;53.248;-6.134;2023-02-03T09:24:08;12.27;;;1.80;;
38683;SDS011;24910;53.248;-6.134;2023-02-03T09:26:37;12.43;;;1.70;;
38683;SDS011;24910;53.248;-6.134;2023-02-03T09:29:07;8.50;;;1.92;;
38683;SDS011;24910;53.248;-6.134;2023-02-03T09:31:41;10.82;;;2.13;;
38683;SDS011;24910;53.248;-6.134;2023-02-03T09:34:13;10.15;;;1.90;;
38683;SDS011;24910;53.248;-6.134;2023-02-03T09:36:42;8.68;;;1.30;;
38683;SDS011;24910;53.248;-6.134;2023-02-03T09:39:11;10.27;;;1.75;;
38683;SDS011;24910;53.248;-6.134;2023-02-03T09:41:53;14.20;;;2.22;;
38683;SDS011;24910;53.248;-6.134;2023-02-03T09:44:40;9.32;;;1.40;;
38683;SDS011;24910;53.248;-6.134;2023-02-03T09:47:15;11.05;;;1.80;;
38683;SDS011;24910;53.248;-6.134;2023-02-03T09:49:49;3.83;;;1.23;;
38683;SDS011;24910;53.248;-6.134;2023-02-03T09:52:21;10.60;;;2.03;;
38683;SDS011;24910;53.248;-6.134;2023-02-03T09:54:53;9.52;;;2.05;;
38683;SDS011;24910;53.248;-6.134;2023-02-03T09:57:27;7.15;;;1.52;;
38683;SDS011;24910;53.248;-6.134;2023-02-03T10:00:01;5.75;;;1.30;;
38683;SDS011;24910;53.248;-6.134;2023-02-03T10:02:53;7.15;;;1.55;;
38683;SDS011;24910;53.248;-6.134;2023-02-03T10:05:36;3.22;;;1.30;;
38683;SDS011;24910;53.248;-6.134;2023-02-03T10:08:42;10.98;;;1.50;;
38683;SDS011;24910;53.248;-6.134;2023-02-03T10:15:02;8.02;;;1.35;;
38683;SDS011;24910;53.248;-6.134;2023-02-03T10:18:02;8.77;;;1.20;;
38683;SDS011;24910;53.248;-6.134;2023-02-03T10:20:46;7.32;;;1.40;;
38683;SDS011;24910;53.248;-6.134;2023-02-03T10:23:21;9.43;;;1.45;;
38683;SDS011;24910;53.248;-6.134;2023-02-03T10:26:00;12.05;;;1.67;;
38683;SDS011;24910;53.248;-6.134;2023-02-03T10:28:36;10.13;;;1.23;;
38683;SDS011;24910;53.248;-6.134;2023-02-03T10:31:12;6.90;;;1.35;;
38683;SDS011;24910;53.248;-6.134;2023-02-03T10:33:46;9.60;;;1.10;;
38683;SDS011;24910;53.248;-6.134;2023-02-03T10:36:18;7.25;;;1.50;;
38683;SDS011;24910;53.248;-6.134;2023-02-03T10:38:51;7.00;;;1.90;;
38683;SDS011;24910;53.248;-6.134;2023-02-03T10:41:27;11.18;;;1.80;;
38683;SDS011;24910;53.248;-6.134;2023-02-03T10:44:05;8.55;;;1.10;;
38683;SDS011;24910;53.248;-6.134;2023-02-03T10:46:42;9.15;;;1.38;;
38683;SDS011;24910;53.248;-6.134;2023-02-03T10:49:17;11.13;;;1.27;;
38683;SDS011;24910;53.248;-6.134;2023-02-03T10:51:49;3.70;;;0.90;;
38683;SDS011;24910;53.248;-6.134;2023-02-03T10:54:26;13.02;;;1.40;;
38683;SDS011;24910;53.248;-6.134;2023-02-03T10:57:01;7.57;;;1.30;;
38683;SDS011;24910;53.248;-6.134;2023-02-03T10:59:33;5.72;;;1.20;;
38683;SDS011;24910;53.248;-6.134;2023-02-03T11:02:09;7.65;;;1.40;;
38683;SDS011;24910;53.248;-6.134;2023-02-03T11:05:08;13.48;;;1.50;;
38683;SDS011;24910;53.248;-6.134;2023-02-03T11:07:39;16.48;;;1.80;;
38683;SDS011;24910;53.248;-6.134;2023-02-03T11:13:12;6.75;;;1.38;;
38683;SDS011;24910;53.248;-6.134;2023-02-03T11:15:52;12.55;;;1.27;;
38683;SDS011;24910;53.248;-6.134;2023-02-03T11:21:15;8.98;;;1.20;;
38683;SDS011;24910;53.248;-6.134;2023-02-03T11:23:50;4.95;;;0.93;;
38683;SDS011;24910;53.248;-6.134;2023-02-03T11:26:22;5.82;;;1.00;;
38683;SDS011;24910;53.248;-6.134;2023-02-03T11:28:55;4.88;;;1.00;;
38683;SDS011;24910;53.248;-6.134;2023-02-03T11:31:27;8.80;;;1.40;;
38683;SDS011;24910;53.248;-6.134;2023-02-03T11:34:00;7.00;;;1.08;;
38683;SDS011;24910;53.248;-6.134;2023-02-03T11:36:33;5.82;;;1.60;;
38683;SDS011;24910;53.248;-6.134;2023-02-03T11:41:54;9.30;;;1.10;;
38683;SDS011;24910;53.248;-6.134;2023-02-03T11:44:24;5.03;;;1.02;;
38683;SDS011;24910;53.248;-6.134;2023-02-03T11:46:58;6.30;;;0.93;;
38683;SDS011;24910;53.248;-6.134;2023-02-03T11:52:46;4.95;;;1.23;;
38683;SDS011;24910;53.248;-6.134;2023-02-03T11:55:27;5.65;;;1.08;;
38683;SDS011;24910;53.248;-6.134;2023-02-03T11:58:11;3.88;;;1.00;;
38683;SDS011;24910;53.248;-6.134;2023-02-03T12:00:53;7.53;;;1.13;;
38683;SDS011;24910;53.248;-6.134;2023-02-03T12:06:44;10.30;;;1.50;;
38683;SDS011;24910;53.248;-6.134;2023-02-03T12:09:34;7.72;;;1.00;;
38683;SDS011;24910;53.248;-6.134;2023-02-03T12:14:53;2.80;;;0.73;;
38683;SDS011;24910;53.248;-6.134;2023-02-03T12:17:37;4.03;;;1.33;;
38683;SDS011;24910;53.248;-6.134;2023-02-03T12:20:21;6.10;;;1.38;;
38683;SDS011;24910;53.248;-6.134;2023-02-03T12:22:58;7.47;;;1.55;;
38683;SDS011;24910;53.248;-6.134;2023-02-03T12:25:35;5.68;;;0.90;;
38683;SDS011;24910;53.248;-6.134;2023-02-03T12:28:27;5.53;;;1.40;;
38683;SDS011;24910;53.248;-6.134;2023-02-03T12:31:15;3.42;;;0.60;;
38683;SDS011;24910;53.248;-6.134;2023-02-03T12:33:49;4.22;;;0.90;;
38683;SDS011;24910;53.248;-6.134;2023-02-03T12:36:25;3.58;;;0.98;;
38683;SDS011;24910;53.248;-6.134;2023-02-03T12:39:00;5.10;;;1.10;;
38683;SDS011;24910;53.248;-6.134;2023-02-03T12:44:33;4.13;;;0.90;;
38683;SDS011;24910;53.248;-6.134;2023-02-03T12:47:11;2.90;;;0.80;;
38683;SDS011;24910;53.248;-6.134;2023-02-03T12:49:46;3.03;;;0.68;;
38683;SDS011;24910;53.248;-6.134;2023-02-03T12:52:22;4.50;;;0.80;;
38683;SDS011;24910;53.248;-6.134;2023-02-03T12:55:05;4.38;;;0.88;;
38683;SDS011;24910;53.248;-6.134;2023-02-03T12:57:48;4.15;;;0.70;;
38683;SDS011;24910;53.248;-6.134;2023-02-03T13:00:28;3.95;;;1.10;;
38683;SDS011;24910;53.248;-6.134;2023-02-03T13:03:16;7.68;;;1.73;;
38683;SDS011;24910;53.248;-6.134;2023-02-03T13:05:53;3.00;;;0.70;;
38683;SDS011;24910;53.248;-6.134;2023-02-03T13:08:28;8.43;;;0.98;;
38683;SDS011;24910;53.248;-6.134;2023-02-03T13:11:05;1.83;;;0.60;;
38683;SDS011;24910;53.248;-6.134;2023-02-03T13:13:43;4.53;;;0.70;;
38683;SDS011;24910;53.248;-6.134;2023-02-03T13:16:16;2.78;;;0.63;;
38683;SDS011;24910;53.248;-6.134;2023-02-03T13:18:52;3.65;;;0.80;;
38683;SDS011;24910;53.248;-6.134;2023-02-03T13:21:26;2.72;;;0.63;;
38683;SDS011;24910;53.248;-6.134;2023-02-03T13:23:55;15.50;;;1.98;;
38683;SDS011;24910;53.248;-6.134;2023-02-03T13:26:37;3.65;;;0.63;;
38683;SDS011;24910;53.248;-6.134;2023-02-03T13:29:31;3.65;;;0.80;;
38683;SDS011;24910;53.248;-6.134;2023-02-03T13:32:22;6.57;;;0.80;;
38683;SDS011;24910;53.248;-6.134;2023-02-03T13:35:10;4.78;;;0.77;;
38683;SDS011;24910;53.248;-6.134;2023-02-03T13:38:20;2.65;;;0.60;;
38683;SDS011;24910;53.248;-6.134;2023-02-03T13:41:01;4.50;;;0.80;;
38683;SDS011;24910;53.248;-6.134;2023-02-03T13:43:36;6.80;;;0.98;;
38683;SDS011;24910;53.248;-6.134;2023-02-03T13:46:07;2.58;;;0.60;;
38683;SDS011;24910;53.248;-6.134;2023-02-03T13:48:49;6.72;;;0.73;;
38683;SDS011;24910;53.248;-6.134;2023-02-03T13:51:20;2.13;;;0.70;;
38683;SDS011;24910;53.248;-6.134;2023-02-03T13:53:57;2.10;;;0.70;;
38683;SDS011;24910;53.248;-6.134;2023-02-03T13:56:29;3.03;;;0.75;;
38683;SDS011;24910;53.248;-6.134;2023-02-03T13:59:02;4.85;;;1.00;;
38683;SDS011;24910;53.248;-6.134;2023-02-03T14:01:34;4.22;;;1.00;;
38683;SDS011;24910;53.248;-6.134;2023-02-03T14:04:05;4.93;;;0.80;;
38683;SDS011;24910;53.248;-6.134;2023-02-03T14:09:37;5.32;;;0.90;;
38683;SDS011;24910;53.248;-6.134;2023-02-03T14:12:20;8.63;;;2.10;;
38683;SDS011;24910;53.248;-6.134;2023-02-03T14:15:26;5.90;;;0.82;;
38683;SDS011;24910;53.248;-6.134;2023-02-03T14:18:02;3.50;;;1.00;;
38683;SDS011;24910;53.248;-6.134;2023-02-03T14:20:47;3.67;;;0.60;;
38683;SDS011;24910;53.248;-6.134;2023-02-03T14:23:40;4.25;;;1.38;;
38683;SDS011;24910;53.248;-6.134;2023-02-03T14:26:17;1.88;;;0.95;;
38683;SDS011;24910;53.248;-6.134;2023-02-03T14:29:01;2.83;;;0.70;;
38683;SDS011;24910;53.248;-6.134;2023-02-03T14:31:35;1.35;;;0.60;;
38683;SDS011;24910;53.248;-6.134;2023-02-03T14:34:34;1.48;;;0.60;;
38683;SDS011;24910;53.248;-6.134;2023-02-03T14:37:16;6.57;;;0.90;;
38683;SDS011;24910;53.248;-6.134;2023-02-03T14:42:56;3.42;;;0.60;;
38683;SDS011;24910;53.248;-6.134;2023-02-03T14:45:50;1.52;;;0.60;;
38683;SDS011;24910;53.248;-6.134;2023-02-03T14:48:40;1.75;;;0.47;;
38683;SDS011;24910;53.248;-6.134;2023-02-03T14:51:28;2.67;;;0.47;;
38683;SDS011;24910;53.248;-6.134;2023-02-03T14:54:16;2.60;;;0.50;;
38683;SDS011;24910;53.248;-6.134;2023-02-03T14:57:01;2.72;;;0.60;;
38683;SDS011;24910;53.248;-6.134;2023-02-03T14:59:47;1.33;;;0.50;;
38683;SDS011;24910;53.248;-6.134;2023-02-03T15:02:19;1.83;;;0.80;;
38683;SDS011;24910;53.248;-6.134;2023-02-03T15:05:32;2.08;;;0.73;;
38683;SDS011;24910;53.248;-6.134;2023-02-03T15:08:00;4.55;;;0.90;;
38683;SDS011;24910;53.248;-6.134;2023-02-03T15:10:39;1.45;;;0.70;;
38683;SDS011;24910;53.248;-6.134;2023-02-03T15:13:22;5.75;;;4.13;;
38683;SDS011;24910;53.248;-6.134;2023-02-03T15:15:53;30.98;;;19.75;;
38683;SDS011;24910;53.248;-6.134;2023-02-03T15:18:27;54.78;;;34.58;;
38683;SDS011;24910;53.248;-6.134;2023-02-03T15:21:00;33.00;;;21.00;;
38683;SDS011;24910;53.248;-6.134;2023-02-03T15:23:37;41.55;;;25.92;;
38683;SDS011;24910;53.248;-6.134;2023-02-03T15:26:11;24.83;;;16.27;;
38683;SDS011;24910;53.248;-6.134;2023-02-03T15:28:42;4.40;;;1.90;;
38683;SDS011;24910;53.248;-6.134;2023-02-03T15:31:21;13.65;;;10.95;;
38683;SDS011;24910;53.248;-6.134;2023-02-03T15:33:54;6.15;;;2.85;;
38683;SDS011;24910;53.248;-6.134;2023-02-03T15:36:34;5.32;;;4.18;;
38683;SDS011;24910;53.248;-6.134;2023-02-03T15:39:17;3.40;;;1.23;;
38683;SDS011;24910;53.248;-6.134;2023-02-03T15:41:55;11.18;;;7.47;;
38683;SDS011;24910;53.248;-6.134;2023-02-03T15:44:27;19.48;;;13.10;;
38683;SDS011;24910;53.248;-6.134;2023-02-03T15:47:00;43.80;;;36.08;;
38683;SDS011;24910;53.248;-6.134;2023-02-03T15:49:34;28.80;;;19.08;;
38683;SDS011;24910;53.248;-6.134;2023-02-03T15:52:11;18.88;;;13.98;;
38683;SDS011;24910;53.248;-6.134;2023-02-03T15:54:45;3.80;;;1.95;;
38683;SDS011;24910;53.248;-6.134;2023-02-03T15:57:22;12.85;;;10.15;;
38683;SDS011;24910;53.248;-6.134;2023-02-03T15:59:56;5.28;;;3.63;;
38683;SDS011;24910;53.248;-6.134;2023-02-03T16:02:39;6.28;;;2.28;;
38683;SDS011;24910;53.248;-6.134;2023-02-03T16:05:19;3.97;;;2.90;;
38683;SDS011;24910;53.248;-6.134;2023-02-03T16:07:53;3.58;;;1.92;;
38683;SDS011;24910;53.248;-6.134;2023-02-03T16:10:26;4.35;;;1.35;;